sensor_id;sensor_type;location;lat;lon;timestamp;P1;durP1;ratioP1;P2;durP2;ratioP2
23802;SDS011;12082;51.786;6.018;2023-04-03T00:01:37;29.87;;;28.17;;
23802;SDS011;12082;51.786;6.018;2023-04-03T00:04:04;30.67;;;28.67;;
23802;SDS011;12082;51.786;6.018;2023-04-03T00:06:31;29.83;;;28.03;;
23802;SDS011;12082;51.786;6.018;2023-04-03T00:08:57;29.60;;;27.77;;
23802;SDS011;12082;51.786;6.018;2023-04-03T00:11:23;27.60;;;25.60;;
23802;SDS011;12082;51.786;6.018;2023-04-03T00:13:50;25.83;;;23.87;;
23802;SDS011;12082;51.786;6.018;2023-04-03T00:16:16;28.47;;;26.63;;
23802;SDS011;12082;51.786;6.018;2023-04-03T00:18:42;32.80;;;30.23;;
23802;SDS011;12082;51.786;6.018;2023-04-03T00:21:09;31.90;;;29.37;;
23802;SDS011;12082;51.786;6.018;2023-04-03T00:23:35;27.20;;;24.70;;
23802;SDS011;12082;51.786;6.018;2023-04-03T00:26:01;32.17;;;29.73;;
23802;SDS011;12082;51.786;6.018;2023-04-03T00:28:27;32.37;;;30.27;;
23802;SDS011;12082;51.786;6.018;2023-04-03T00:30:53;29.83;;;27.93;;
23802;SDS011;12082;51.786;6.018;2023-04-03T00:33:19;20.77;;;19.17;;
23802;SDS011;12082;51.786;6.018;2023-04-03T00:35:46;30.13;;;28.03;;
23802;SDS011;12082;51.786;6.018;2023-04-03T00:38:13;20.97;;;18.97;;
23802;SDS011;12082;51.786;6.018;2023-04-03T00:40:41;25.27;;;23.30;;
23802;SDS011;12082;51.786;6.018;2023-04-03T00:43:12;29.03;;;26.70;;
23802;SDS011;12082;51.786;6.018;2023-04-03T00:45:39;29.50;;;27.40;;
23802;SDS011;12082;51.786;6.018;2023-04-03T00:48:06;26.80;;;25.00;;
23802;SDS011;12082;51.786;6.018;2023-04-03T00:50:37;27.17;;;24.80;;
23802;SDS011;12082;51.786;6.018;2023-04-03T00:53:04;25.07;;;23.37;;
23802;SDS011;12082;51.786;6.018;2023-04-03T00:55:32;34.60;;;32.50;;
23802;SDS011;12082;51.786;6.018;2023-04-03T00:57:58;29.23;;;27.23;;
23802;SDS011;12082;51.786;6.018;2023-04-03T01:00:25;34.90;;;32.10;;
23802;SDS011;12082;51.786;6.018;2023-04-03T01:02:52;33.83;;;31.73;;
23802;SDS011;12082;51.786;6.018;2023-04-03T01:05:18;34.70;;;32.60;;
23802;SDS011;12082;51.786;6.018;2023-04-03T01:07:44;32.87;;;30.87;;
23802;SDS011;12082;51.786;6.018;2023-04-03T01:10:12;36.00;;;33.80;;
23802;SDS011;12082;51.786;6.018;2023-04-03T01:12:40;33.40;;;31.43;;
23802;SDS011;12082;51.786;6.018;2023-04-03T01:17:34;32.43;;;30.43;;
23802;SDS011;12082;51.786;6.018;2023-04-03T01:20:22;34.80;;;32.60;;
23802;SDS011;12082;51.786;6.018;2023-04-03T01:25:45;27.27;;;25.50;;
23802;SDS011;12082;51.786;6.018;2023-04-03T01:28:54;31.37;;;29.40;;
23802;SDS011;12082;51.786;6.018;2023-04-03T01:31:12;30.67;;;28.60;;
23802;SDS011;12082;51.786;6.018;2023-04-03T01:33:40;24.40;;;22.90;;
23802;SDS011;12082;51.786;6.018;2023-04-03T01:36:07;36.70;;;34.60;;
23802;SDS011;12082;51.786;6.018;2023-04-03T01:38:33;26.40;;;24.83;;
23802;SDS011;12082;51.786;6.018;2023-04-03T01:40:59;32.70;;;30.40;;
23802;SDS011;12082;51.786;6.018;2023-04-03T01:43:25;37.80;;;35.73;;
23802;SDS011;12082;51.786;6.018;2023-04-03T01:45:51;31.63;;;29.83;;
23802;SDS011;12082;51.786;6.018;2023-04-03T01:48:19;34.80;;;32.80;;
23802;SDS011;12082;51.786;6.018;2023-04-03T01:50:45;44.07;;;41.70;;
23802;SDS011;12082;51.786;6.018;2023-04-03T01:53:11;27.53;;;25.83;;
23802;SDS011;12082;51.786;6.018;2023-04-03T01:55:37;32.20;;;30.57;;
23802;SDS011;12082;51.786;6.018;2023-04-03T01:58:03;40.20;;;38.07;;
23802;SDS011;12082;51.786;6.018;2023-04-03T02:00:29;37.70;;;35.70;;
23802;SDS011;12082;51.786;6.018;2023-04-03T02:02:56;22.40;;;20.60;;
23802;SDS011;12082;51.786;6.018;2023-04-03T02:05:22;37.67;;;35.33;;
23802;SDS011;12082;51.786;6.018;2023-04-03T02:07:48;38.40;;;36.20;;
23802;SDS011;12082;51.786;6.018;2023-04-03T02:10:14;38.50;;;36.27;;
23802;SDS011;12082;51.786;6.018;2023-04-03T02:12:40;27.83;;;26.27;;
23802;SDS011;12082;51.786;6.018;2023-04-03T02:15:06;23.40;;;21.90;;
23802;SDS011;12082;51.786;6.018;2023-04-03T02:17:32;21.80;;;20.40;;
23802;SDS011;12082;51.786;6.018;2023-04-03T02:19:58;20.90;;;19.60;;
23802;SDS011;12082;51.786;6.018;2023-04-03T02:22:24;26.63;;;25.00;;
23802;SDS011;12082;51.786;6.018;2023-04-03T02:24:50;37.57;;;35.57;;
23802;SDS011;12082;51.786;6.018;2023-04-03T02:27:16;36.80;;;34.70;;
23802;SDS011;12082;51.786;6.018;2023-04-03T02:29:42;23.73;;;22.40;;
23802;SDS011;12082;51.786;6.018;2023-04-03T02:32:08;21.23;;;19.63;;
23802;SDS011;12082;51.786;6.018;2023-04-03T02:34:34;32.50;;;30.70;;
23802;SDS011;12082;51.786;6.018;2023-04-03T02:37:00;19.67;;;18.57;;
23802;SDS011;12082;51.786;6.018;2023-04-03T02:39:26;37.50;;;35.60;;
23802;SDS011;12082;51.786;6.018;2023-04-03T02:41:53;26.70;;;24.97;;
23802;SDS011;12082;51.786;6.018;2023-04-03T02:44:18;39.37;;;36.97;;
23802;SDS011;12082;51.786;6.018;2023-04-03T02:46:44;36.73;;;34.63;;
23802;SDS011;12082;51.786;6.018;2023-04-03T02:49:10;42.67;;;40.03;;
23802;SDS011;12082;51.786;6.018;2023-04-03T02:51:36;40.43;;;38.27;;
23802;SDS011;12082;51.786;6.018;2023-04-03T02:54:02;28.73;;;27.17;;
23802;SDS011;12082;51.786;6.018;2023-04-03T02:56:28;28.53;;;26.93;;
23802;SDS011;12082;51.786;6.018;2023-04-03T02:58:55;42.90;;;40.10;;
23802;SDS011;12082;51.786;6.018;2023-04-03T03:01:20;26.67;;;25.23;;
23802;SDS011;12082;51.786;6.018;2023-04-03T03:03:46;41.37;;;39.07;;
23802;SDS011;12082;51.786;6.018;2023-04-03T03:06:14;44.30;;;42.00;;
23802;SDS011;12082;51.786;6.018;2023-04-03T03:08:40;43.37;;;40.87;;
23802;SDS011;12082;51.786;6.018;2023-04-03T03:11:06;37.03;;;34.83;;
23802;SDS011;12082;51.786;6.018;2023-04-03T03:13:32;22.70;;;21.20;;
23802;SDS011;12082;51.786;6.018;2023-04-03T03:15:58;25.10;;;23.47;;
23802;SDS011;12082;51.786;6.018;2023-04-03T03:18:25;37.97;;;36.03;;
23802;SDS011;12082;51.786;6.018;2023-04-03T03:20:54;42.23;;;39.93;;
23802;SDS011;12082;51.786;6.018;2023-04-03T03:23:22;35.23;;;32.80;;
23802;SDS011;12082;51.786;6.018;2023-04-03T03:25:48;21.27;;;19.70;;
23802;SDS011;12082;51.786;6.018;2023-04-03T03:28:14;26.30;;;24.70;;
23802;SDS011;12082;51.786;6.018;2023-04-03T03:30:40;21.67;;;19.73;;
23802;SDS011;12082;51.786;6.018;2023-04-03T03:33:06;38.27;;;35.73;;
23802;SDS011;12082;51.786;6.018;2023-04-03T03:35:32;24.13;;;22.73;;
23802;SDS011;12082;51.786;6.018;2023-04-03T03:37:58;39.67;;;37.37;;
23802;SDS011;12082;51.786;6.018;2023-04-03T03:40:24;37.80;;;35.80;;
23802;SDS011;12082;51.786;6.018;2023-04-03T03:42:50;38.23;;;36.17;;
23802;SDS011;12082;51.786;6.018;2023-04-03T03:45:16;35.03;;;33.30;;
23802;SDS011;12082;51.786;6.018;2023-04-03T03:47:42;33.37;;;31.67;;
23802;SDS011;12082;51.786;6.018;2023-04-03T03:50:08;37.90;;;36.07;;
23802;SDS011;12082;51.786;6.018;2023-04-03T03:52:34;34.73;;;32.93;;
23802;SDS011;12082;51.786;6.018;2023-04-03T03:55:00;30.73;;;29.07;;
23802;SDS011;12082;51.786;6.018;2023-04-03T03:57:26;29.93;;;28.13;;
23802;SDS011;12082;51.786;6.018;2023-04-03T03:59:53;37.53;;;35.73;;
23802;SDS011;12082;51.786;6.018;2023-04-03T04:02:19;36.63;;;34.37;;
23802;SDS011;12082;51.786;6.018;2023-04-03T04:04:45;20.17;;;19.17;;
23802;SDS011;12082;51.786;6.018;2023-04-03T04:07:11;29.23;;;27.53;;
23802;SDS011;12082;51.786;6.018;2023-04-03T04:09:37;35.97;;;34.07;;
23802;SDS011;12082;51.786;6.018;2023-04-03T04:12:03;32.17;;;30.47;;
23802;SDS011;12082;51.786;6.018;2023-04-03T04:14:29;34.37;;;32.43;;
23802;SDS011;12082;51.786;6.018;2023-04-03T04:16:55;34.70;;;32.70;;
23802;SDS011;12082;51.786;6.018;2023-04-03T04:19:21;35.83;;;33.83;;
23802;SDS011;12082;51.786;6.018;2023-04-03T04:21:47;28.37;;;26.57;;
23802;SDS011;12082;51.786;6.018;2023-04-03T04:24:13;37.07;;;35.27;;
23802;SDS011;12082;51.786;6.018;2023-04-03T04:26:39;36.60;;;34.60;;
23802;SDS011;12082;51.786;6.018;2023-04-03T04:29:05;32.00;;;30.40;;
23802;SDS011;12082;51.786;6.018;2023-04-03T04:31:31;35.73;;;33.80;;
23802;SDS011;12082;51.786;6.018;2023-04-03T04:33:57;32.23;;;30.20;;
23802;SDS011;12082;51.786;6.018;2023-04-03T04:36:23;37.30;;;35.17;;
23802;SDS011;12082;51.786;6.018;2023-04-03T04:38:49;38.40;;;36.33;;
23802;SDS011;12082;51.786;6.018;2023-04-03T04:41:17;32.93;;;31.03;;
23802;SDS011;12082;51.786;6.018;2023-04-03T04:43:46;18.97;;;17.87;;
23802;SDS011;12082;51.786;6.018;2023-04-03T04:46:12;33.50;;;31.47;;
23802;SDS011;12082;51.786;6.018;2023-04-03T04:48:38;26.67;;;25.17;;
23802;SDS011;12082;51.786;6.018;2023-04-03T04:51:04;39.07;;;36.97;;
23802;SDS011;12082;51.786;6.018;2023-04-03T04:53:30;21.13;;;19.87;;
23802;SDS011;12082;51.786;6.018;2023-04-03T04:55:56;41.70;;;39.13;;
23802;SDS011;12082;51.786;6.018;2023-04-03T04:58:22;38.27;;;36.37;;
23802;SDS011;12082;51.786;6.018;2023-04-03T05:00:48;38.37;;;35.93;;
23802;SDS011;12082;51.786;6.018;2023-04-03T05:03:14;34.07;;;32.30;;
23802;SDS011;12082;51.786;6.018;2023-04-03T05:05:40;34.03;;;32.03;;
23802;SDS011;12082;51.786;6.018;2023-04-03T05:08:06;33.60;;;31.80;;
23802;SDS011;12082;51.786;6.018;2023-04-03T05:10:33;35.73;;;33.20;;
23802;SDS011;12082;51.786;6.018;2023-04-03T05:12:59;36.73;;;34.77;;
23802;SDS011;12082;51.786;6.018;2023-04-03T05:15:25;18.57;;;17.57;;
23802;SDS011;12082;51.786;6.018;2023-04-03T05:17:51;22.57;;;21.37;;
23802;SDS011;12082;51.786;6.018;2023-04-03T05:20:17;21.57;;;19.87;;
23802;SDS011;12082;51.786;6.018;2023-04-03T05:22:43;25.00;;;23.47;;
23802;SDS011;12082;51.786;6.018;2023-04-03T05:25:09;25.93;;;24.33;;
23802;SDS011;12082;51.786;6.018;2023-04-03T05:27:35;41.57;;;39.50;;
23802;SDS011;12082;51.786;6.018;2023-04-03T05:30:02;37.47;;;35.47;;
23802;SDS011;12082;51.786;6.018;2023-04-03T05:32:28;22.93;;;21.57;;
23802;SDS011;12082;51.786;6.018;2023-04-03T05:34:54;44.93;;;42.70;;
23802;SDS011;12082;51.786;6.018;2023-04-03T05:37:20;32.03;;;29.90;;
23802;SDS011;12082;51.786;6.018;2023-04-03T05:39:46;42.03;;;39.53;;
23802;SDS011;12082;51.786;6.018;2023-04-03T05:42:12;23.43;;;21.70;;
23802;SDS011;12082;51.786;6.018;2023-04-03T05:44:38;22.20;;;20.90;;
23802;SDS011;12082;51.786;6.018;2023-04-03T05:47:05;26.60;;;24.80;;
23802;SDS011;12082;51.786;6.018;2023-04-03T05:49:31;33.43;;;31.37;;
23802;SDS011;12082;51.786;6.018;2023-04-03T05:51:58;36.37;;;34.10;;
23802;SDS011;12082;51.786;6.018;2023-04-03T05:54:27;27.70;;;26.20;;
23802;SDS011;12082;51.786;6.018;2023-04-03T05:56:53;21.50;;;20.30;;
23802;SDS011;12082;51.786;6.018;2023-04-03T05:59:20;18.73;;;17.50;;
23802;SDS011;12082;51.786;6.018;2023-04-03T06:01:46;24.73;;;23.00;;
23802;SDS011;12082;51.786;6.018;2023-04-03T06:04:12;23.07;;;21.70;;
23802;SDS011;12082;51.786;6.018;2023-04-03T06:09:10;19.93;;;18.00;;
23802;SDS011;12082;51.786;6.018;2023-04-03T06:11:36;18.27;;;16.93;;
23802;SDS011;12082;51.786;6.018;2023-04-03T06:14:02;20.67;;;19.17;;
23802;SDS011;12082;51.786;6.018;2023-04-03T06:16:28;27.57;;;25.87;;
23802;SDS011;12082;51.786;6.018;2023-04-03T06:18:54;27.00;;;25.00;;
23802;SDS011;12082;51.786;6.018;2023-04-03T06:21:21;28.73;;;26.37;;
23802;SDS011;12082;51.786;6.018;2023-04-03T06:23:46;27.53;;;25.63;;
23802;SDS011;12082;51.786;6.018;2023-04-03T06:26:12;30.07;;;28.47;;
23802;SDS011;12082;51.786;6.018;2023-04-03T06:28:38;21.13;;;19.80;;
23802;SDS011;12082;51.786;6.018;2023-04-03T06:31:04;31.97;;;30.17;;
23802;SDS011;12082;51.786;6.018;2023-04-03T06:33:30;26.60;;;24.93;;
23802;SDS011;12082;51.786;6.018;2023-04-03T06:35:57;23.37;;;21.87;;
23802;SDS011;12082;51.786;6.018;2023-04-03T06:38:23;43.80;;;41.50;;
23802;SDS011;12082;51.786;6.018;2023-04-03T06:40:49;50.13;;;47.40;;
23802;SDS011;12082;51.786;6.018;2023-04-03T06:43:16;50.80;;;48.10;;
23802;SDS011;12082;51.786;6.018;2023-04-03T06:45:42;34.67;;;32.60;;
23802;SDS011;12082;51.786;6.018;2023-04-03T06:48:08;44.33;;;42.10;;
23802;SDS011;12082;51.786;6.018;2023-04-03T06:50:34;26.03;;;24.63;;
23802;SDS011;12082;51.786;6.018;2023-04-03T06:53:00;27.43;;;25.60;;
23802;SDS011;12082;51.786;6.018;2023-04-03T06:55:26;26.57;;;25.10;;
23802;SDS011;12082;51.786;6.018;2023-04-03T06:57:52;57.27;;;54.47;;
23802;SDS011;12082;51.786;6.018;2023-04-03T07:00:18;59.10;;;54.97;;
23802;SDS011;12082;51.786;6.018;2023-04-03T07:02:44;63.40;;;60.00;;
23802;SDS011;12082;51.786;6.018;2023-04-03T07:05:11;78.53;;;74.53;;
23802;SDS011;12082;51.786;6.018;2023-04-03T07:07:38;78.57;;;74.77;;
23802;SDS011;12082;51.786;6.018;2023-04-03T07:10:05;73.27;;;69.73;;
23802;SDS011;12082;51.786;6.018;2023-04-03T07:12:31;70.47;;;66.97;;
23802;SDS011;12082;51.786;6.018;2023-04-03T07:14:58;60.77;;;57.63;;
23802;SDS011;12082;51.786;6.018;2023-04-03T07:17:24;48.67;;;45.97;;
23802;SDS011;12082;51.786;6.018;2023-04-03T07:19:50;52.33;;;49.77;;
23802;SDS011;12082;51.786;6.018;2023-04-03T07:22:16;52.83;;;49.90;;
23802;SDS011;12082;51.786;6.018;2023-04-03T07:24:42;50.87;;;48.37;;
23802;SDS011;12082;51.786;6.018;2023-04-03T07:27:08;50.47;;;47.97;;
23802;SDS011;12082;51.786;6.018;2023-04-03T07:29:37;50.80;;;48.20;;
23802;SDS011;12082;51.786;6.018;2023-04-03T07:32:03;48.70;;;46.00;;
23802;SDS011;12082;51.786;6.018;2023-04-03T07:34:30;45.90;;;43.40;;
23802;SDS011;12082;51.786;6.018;2023-04-03T07:36:57;42.77;;;40.60;;
23802;SDS011;12082;51.786;6.018;2023-04-03T07:39:23;38.67;;;36.43;;
23802;SDS011;12082;51.786;6.018;2023-04-03T07:41:49;35.77;;;33.93;;
23802;SDS011;12082;51.786;6.018;2023-04-03T07:44:16;35.13;;;33.30;;
23802;SDS011;12082;51.786;6.018;2023-04-03T07:46:42;35.20;;;33.20;;
23802;SDS011;12082;51.786;6.018;2023-04-03T07:49:08;33.83;;;32.17;;
23802;SDS011;12082;51.786;6.018;2023-04-03T07:51:34;35.50;;;33.50;;
23802;SDS011;12082;51.786;6.018;2023-04-03T07:54:00;36.00;;;34.23;;
23802;SDS011;12082;51.786;6.018;2023-04-03T07:56:26;35.37;;;33.57;;
23802;SDS011;12082;51.786;6.018;2023-04-03T07:58:52;36.50;;;34.57;;
23802;SDS011;12082;51.786;6.018;2023-04-03T08:01:18;38.20;;;36.23;;
23802;SDS011;12082;51.786;6.018;2023-04-03T08:03:44;38.07;;;36.27;;
23802;SDS011;12082;51.786;6.018;2023-04-03T08:06:10;38.80;;;36.57;;
23802;SDS011;12082;51.786;6.018;2023-04-03T08:08:37;38.73;;;36.73;;
23802;SDS011;12082;51.786;6.018;2023-04-03T08:11:03;39.30;;;37.10;;
23802;SDS011;12082;51.786;6.018;2023-04-03T08:13:31;37.07;;;35.03;;
23802;SDS011;12082;51.786;6.018;2023-04-03T08:15:57;34.90;;;32.63;;
23802;SDS011;12082;51.786;6.018;2023-04-03T08:18:24;34.73;;;32.90;;
23802;SDS011;12082;51.786;6.018;2023-04-03T08:20:51;34.93;;;33.03;;
23802;SDS011;12082;51.786;6.018;2023-04-03T08:23:17;34.77;;;32.80;;
23802;SDS011;12082;51.786;6.018;2023-04-03T08:25:44;33.50;;;31.67;;
23802;SDS011;12082;51.786;6.018;2023-04-03T08:28:10;32.80;;;31.30;;
23802;SDS011;12082;51.786;6.018;2023-04-03T08:30:38;32.73;;;30.90;;
23802;SDS011;12082;51.786;6.018;2023-04-03T08:33:05;31.10;;;29.60;;
23802;SDS011;12082;51.786;6.018;2023-04-03T08:35:31;33.57;;;31.67;;
23802;SDS011;12082;51.786;6.018;2023-04-03T08:37:57;33.43;;;31.53;;
23802;SDS011;12082;51.786;6.018;2023-04-03T08:40:23;35.97;;;34.27;;
23802;SDS011;12082;51.786;6.018;2023-04-03T08:48:04;34.43;;;32.77;;
23802;SDS011;12082;51.786;6.018;2023-04-03T08:51:14;33.77;;;31.87;;
23802;SDS011;12082;51.786;6.018;2023-04-03T08:53:25;34.83;;;32.93;;
23802;SDS011;12082;51.786;6.018;2023-04-03T08:55:53;35.93;;;34.07;;
23802;SDS011;12082;51.786;6.018;2023-04-03T08:58:30;36.50;;;34.70;;
23802;SDS011;12082;51.786;6.018;2023-04-03T09:03:23;36.07;;;34.17;;
23802;SDS011;12082;51.786;6.018;2023-04-03T09:05:53;36.77;;;34.87;;
23802;SDS011;12082;51.786;6.018;2023-04-03T09:08:22;36.83;;;35.13;;
23802;SDS011;12082;51.786;6.018;2023-04-03T09:10:52;36.10;;;34.40;;
23802;SDS011;12082;51.786;6.018;2023-04-03T09:16:20;39.40;;;37.37;;
23802;SDS011;12082;51.786;6.018;2023-04-03T09:18:48;37.47;;;35.67;;
23802;SDS011;12082;51.786;6.018;2023-04-03T09:21:24;36.20;;;34.50;;
23802;SDS011;12082;51.786;6.018;2023-04-03T09:23:52;36.57;;;34.93;;
23802;SDS011;12082;51.786;6.018;2023-04-03T09:28:44;34.33;;;32.63;;
23802;SDS011;12082;51.786;6.018;2023-04-03T09:31:36;36.10;;;34.33;;
23802;SDS011;12082;51.786;6.018;2023-04-03T09:33:58;39.10;;;37.13;;
23802;SDS011;12082;51.786;6.018;2023-04-03T09:36:39;35.40;;;33.80;;
23802;SDS011;12082;51.786;6.018;2023-04-03T09:39:10;34.97;;;33.37;;
23802;SDS011;12082;51.786;6.018;2023-04-03T09:41:36;33.93;;;32.43;;
23802;SDS011;12082;51.786;6.018;2023-04-03T09:44:02;34.50;;;32.73;;
23802;SDS011;12082;51.786;6.018;2023-04-03T09:46:32;34.03;;;32.33;;
23802;SDS011;12082;51.786;6.018;2023-04-03T09:48:59;37.03;;;35.23;;
23802;SDS011;12082;51.786;6.018;2023-04-03T09:51:26;34.27;;;32.67;;
23802;SDS011;12082;51.786;6.018;2023-04-03T09:53:53;32.07;;;30.43;;
23802;SDS011;12082;51.786;6.018;2023-04-03T09:58:47;32.27;;;30.87;;
23802;SDS011;12082;51.786;6.018;2023-04-03T10:06:31;34.37;;;32.67;;
23802;SDS011;12082;51.786;6.018;2023-04-03T10:09:05;32.43;;;30.93;;
23802;SDS011;12082;51.786;6.018;2023-04-03T10:11:31;34.13;;;32.47;;
23802;SDS011;12082;51.786;6.018;2023-04-03T10:13:59;32.53;;;30.90;;
23802;SDS011;12082;51.786;6.018;2023-04-03T10:16:27;32.70;;;31.20;;
23802;SDS011;12082;51.786;6.018;2023-04-03T10:19:39;32.87;;;31.33;;
23802;SDS011;12082;51.786;6.018;2023-04-03T10:21:54;32.80;;;31.30;;
23802;SDS011;12082;51.786;6.018;2023-04-03T10:24:23;34.63;;;32.70;;
23802;SDS011;12082;51.786;6.018;2023-04-03T10:26:53;33.20;;;31.60;;
23802;SDS011;12082;51.786;6.018;2023-04-03T10:29:39;33.20;;;31.27;;
23802;SDS011;12082;51.786;6.018;2023-04-03T10:34:37;33.83;;;32.30;;
23802;SDS011;12082;51.786;6.018;2023-04-03T10:37:24;32.70;;;31.20;;
23802;SDS011;12082;51.786;6.018;2023-04-03T10:39:57;33.20;;;31.70;;
23802;SDS011;12082;51.786;6.018;2023-04-03T10:45:24;32.63;;;30.90;;
23802;SDS011;12082;51.786;6.018;2023-04-03T11:00:54;29.50;;;28.20;;
23802;SDS011;12082;51.786;6.018;2023-04-03T11:05:51;31.17;;;29.50;;
23802;SDS011;12082;51.786;6.018;2023-04-03T11:11:08;32.63;;;31.13;;
23802;SDS011;12082;51.786;6.018;2023-04-03T11:13:47;31.50;;;29.83;;
23802;SDS011;12082;51.786;6.018;2023-04-03T11:16:16;32.43;;;30.93;;
23802;SDS011;12082;51.786;6.018;2023-04-03T11:18:52;31.57;;;30.07;;
23802;SDS011;12082;51.786;6.018;2023-04-03T11:21:33;32.13;;;30.53;;
23802;SDS011;12082;51.786;6.018;2023-04-03T11:24:00;32.27;;;30.53;;
23802;SDS011;12082;51.786;6.018;2023-04-03T11:26:30;33.17;;;31.57;;
23802;SDS011;12082;51.786;6.018;2023-04-03T11:29:01;33.33;;;31.70;;
23802;SDS011;12082;51.786;6.018;2023-04-03T11:36:40;29.70;;;28.10;;
23802;SDS011;12082;51.786;6.018;2023-04-03T11:39:20;29.80;;;28.40;;
23802;SDS011;12082;51.786;6.018;2023-04-03T11:41:48;32.83;;;31.13;;
23802;SDS011;12082;51.786;6.018;2023-04-03T11:44:29;33.73;;;31.97;;
23802;SDS011;12082;51.786;6.018;2023-04-03T11:46:57;33.23;;;31.63;;
23802;SDS011;12082;51.786;6.018;2023-04-03T11:52:11;32.87;;;31.37;;
23802;SDS011;12082;51.786;6.018;2023-04-03T11:54:43;33.13;;;31.53;;
23802;SDS011;12082;51.786;6.018;2023-04-03T11:57:22;32.30;;;30.43;;
23802;SDS011;12082;51.786;6.018;2023-04-03T12:02:52;33.93;;;32.17;;
23802;SDS011;12082;51.786;6.018;2023-04-03T12:05:28;32.90;;;31.37;;
23802;SDS011;12082;51.786;6.018;2023-04-03T12:10:39;32.80;;;31.17;;
23802;SDS011;12082;51.786;6.018;2023-04-03T12:13:14;35.00;;;33.30;;
23802;SDS011;12082;51.786;6.018;2023-04-03T12:15:44;36.07;;;34.37;;
23802;SDS011;12082;51.786;6.018;2023-04-03T12:20:58;34.03;;;32.43;;
23802;SDS011;12082;51.786;6.018;2023-04-03T12:23:31;31.07;;;29.57;;
23802;SDS011;12082;51.786;6.018;2023-04-03T12:26:02;31.87;;;30.33;;
23802;SDS011;12082;51.786;6.018;2023-04-03T12:28:30;31.63;;;29.37;;
23802;SDS011;12082;51.786;6.018;2023-04-03T12:31:01;31.53;;;29.90;;
23802;SDS011;12082;51.786;6.018;2023-04-03T12:33:38;31.83;;;30.10;;
23802;SDS011;12082;51.786;6.018;2023-04-03T12:36:09;35.03;;;33.20;;
23802;SDS011;12082;51.786;6.018;2023-04-03T12:46:42;37.33;;;35.43;;
23802;SDS011;12082;51.786;6.018;2023-04-03T12:49:42;36.10;;;34.37;;
23802;SDS011;12082;51.786;6.018;2023-04-03T12:52:02;35.83;;;34.10;;
23802;SDS011;12082;51.786;6.018;2023-04-03T12:54:32;38.47;;;36.37;;
23802;SDS011;12082;51.786;6.018;2023-04-03T12:59:35;35.67;;;33.87;;
23802;SDS011;12082;51.786;6.018;2023-04-03T13:02:03;35.33;;;33.60;;
23802;SDS011;12082;51.786;6.018;2023-04-03T13:04:37;33.83;;;32.23;;
23802;SDS011;12082;51.786;6.018;2023-04-03T13:07:04;34.30;;;32.70;;
23802;SDS011;12082;51.786;6.018;2023-04-03T13:09:30;34.07;;;32.30;;
23802;SDS011;12082;51.786;6.018;2023-04-03T13:11:58;34.33;;;32.63;;
23802;SDS011;12082;51.786;6.018;2023-04-03T13:14:25;34.73;;;32.63;;
23802;SDS011;12082;51.786;6.018;2023-04-03T13:17:14;32.50;;;30.93;;
23802;SDS011;12082;51.786;6.018;2023-04-03T13:19:40;34.03;;;32.10;;
23802;SDS011;12082;51.786;6.018;2023-04-03T13:24:48;32.27;;;30.53;;
23802;SDS011;12082;51.786;6.018;2023-04-03T13:27:15;31.90;;;30.20;;
23802;SDS011;12082;51.786;6.018;2023-04-03T13:29:41;32.67;;;30.97;;
23802;SDS011;12082;51.786;6.018;2023-04-03T13:32:07;32.27;;;30.77;;
23802;SDS011;12082;51.786;6.018;2023-04-03T13:34:42;32.50;;;30.90;;
23802;SDS011;12082;51.786;6.018;2023-04-03T13:37:20;34.27;;;32.37;;
23802;SDS011;12082;51.786;6.018;2023-04-03T13:39:55;34.77;;;33.07;;
23802;SDS011;12082;51.786;6.018;2023-04-03T13:42:23;33.33;;;31.60;;
23802;SDS011;12082;51.786;6.018;2023-04-03T13:44:49;33.73;;;31.73;;
23802;SDS011;12082;51.786;6.018;2023-04-03T13:47:37;31.77;;;30.07;;
23802;SDS011;12082;51.786;6.018;2023-04-03T13:50:15;31.77;;;30.00;;
23802;SDS011;12082;51.786;6.018;2023-04-03T13:52:55;32.63;;;31.13;;
23802;SDS011;12082;51.786;6.018;2023-04-03T13:55:33;32.73;;;31.10;;
23802;SDS011;12082;51.786;6.018;2023-04-03T14:00:30;31.93;;;30.00;;
23802;SDS011;12082;51.786;6.018;2023-04-03T14:02:58;32.63;;;31.03;;
23802;SDS011;12082;51.786;6.018;2023-04-03T14:05:24;31.70;;;30.00;;
23802;SDS011;12082;51.786;6.018;2023-04-03T14:07:52;33.90;;;31.87;;
23802;SDS011;12082;51.786;6.018;2023-04-03T14:10:18;34.43;;;32.73;;
23802;SDS011;12082;51.786;6.018;2023-04-03T14:12:45;33.10;;;31.50;;
23802;SDS011;12082;51.786;6.018;2023-04-03T14:15:24;32.93;;;31.13;;
23802;SDS011;12082;51.786;6.018;2023-04-03T14:17:51;33.20;;;31.50;;
23802;SDS011;12082;51.786;6.018;2023-04-03T14:20:18;32.43;;;30.73;;
23802;SDS011;12082;51.786;6.018;2023-04-03T14:22:45;31.20;;;29.70;;
23802;SDS011;12082;51.786;6.018;2023-04-03T14:25:12;30.37;;;28.77;;
23802;SDS011;12082;51.786;6.018;2023-04-03T14:27:39;30.00;;;28.60;;
23802;SDS011;12082;51.786;6.018;2023-04-03T14:30:08;30.33;;;28.87;;
23802;SDS011;12082;51.786;6.018;2023-04-03T14:32:34;32.00;;;30.00;;
23802;SDS011;12082;51.786;6.018;2023-04-03T14:35:00;31.70;;;29.80;;
23802;SDS011;12082;51.786;6.018;2023-04-03T14:37:27;30.23;;;28.63;;
23802;SDS011;12082;51.786;6.018;2023-04-03T14:39:54;30.23;;;28.67;;
23802;SDS011;12082;51.786;6.018;2023-04-03T14:42:22;31.43;;;29.63;;
23802;SDS011;12082;51.786;6.018;2023-04-03T14:44:48;33.00;;;31.07;;
23802;SDS011;12082;51.786;6.018;2023-04-03T14:47:15;32.23;;;30.47;;
23802;SDS011;12082;51.786;6.018;2023-04-03T14:49:41;31.97;;;30.37;;
23802;SDS011;12082;51.786;6.018;2023-04-03T14:52:30;31.43;;;29.63;;
23802;SDS011;12082;51.786;6.018;2023-04-03T14:54:54;30.17;;;28.67;;
23802;SDS011;12082;51.786;6.018;2023-04-03T14:57:21;30.50;;;29.00;;
23802;SDS011;12082;51.786;6.018;2023-04-03T14:59:49;30.47;;;28.97;;
23802;SDS011;12082;51.786;6.018;2023-04-03T15:02:28;32.67;;;31.07;;
23802;SDS011;12082;51.786;6.018;2023-04-03T15:04:55;33.03;;;31.17;;
23802;SDS011;12082;51.786;6.018;2023-04-03T15:07:22;32.10;;;30.40;;
23802;SDS011;12082;51.786;6.018;2023-04-03T15:09:48;33.10;;;30.97;;
23802;SDS011;12082;51.786;6.018;2023-04-03T15:12:14;33.10;;;31.40;;
23802;SDS011;12082;51.786;6.018;2023-04-03T15:14:41;32.37;;;30.57;;
23802;SDS011;12082;51.786;6.018;2023-04-03T15:17:08;34.77;;;32.93;;
23802;SDS011;12082;51.786;6.018;2023-04-03T15:19:38;34.00;;;32.37;;
23802;SDS011;12082;51.786;6.018;2023-04-03T15:22:05;34.80;;;33.00;;
23802;SDS011;12082;51.786;6.018;2023-04-03T15:24:31;32.93;;;31.23;;
23802;SDS011;12082;51.786;6.018;2023-04-03T15:26:57;33.20;;;31.30;;
23802;SDS011;12082;51.786;6.018;2023-04-03T15:29:23;33.43;;;31.83;;
23802;SDS011;12082;51.786;6.018;2023-04-03T15:31:49;34.00;;;32.13;;
23802;SDS011;12082;51.786;6.018;2023-04-03T15:34:18;33.37;;;31.63;;
23802;SDS011;12082;51.786;6.018;2023-04-03T15:36:44;31.03;;;29.40;;
23802;SDS011;12082;51.786;6.018;2023-04-03T15:39:10;31.27;;;29.73;;
23802;SDS011;12082;51.786;6.018;2023-04-03T15:41:36;31.83;;;30.10;;
23802;SDS011;12082;51.786;6.018;2023-04-03T15:44:02;32.90;;;31.27;;
23802;SDS011;12082;51.786;6.018;2023-04-03T15:46:28;33.50;;;31.60;;
23802;SDS011;12082;51.786;6.018;2023-04-03T15:48:54;35.20;;;33.30;;
23802;SDS011;12082;51.786;6.018;2023-04-03T15:51:20;34.87;;;32.90;;